Terminal Aerodrome Forecast
Issued by NWS

Home | Current Version | Previous Version | Text Only | Print | Product List | Glossary On
Versions: 1 2 3 4 5 6 7 8 9 10 11 12 13 14 15 16 17
000
FTUS41 KBTV 201720
TAFSLK
TAF
KSLK 201720Z 2018/2118 27008KT P6SM SCT050
     FM210800 23005KT P6SM FEW025
      TEMPO 2108/2112 2SM BR SCT012
     FM211300 23010KT P6SM FEW150=

USA.gov is the U.S. government's official web portal to all federal, state and local government web resources and services.